Time;durP1;ratioP1;P1;durP2;ratioP2;P2;SDS_P1;SDS_P2;PMS_P1;PMS_P2;Temp;Humidity;BMP_temperature;BMP_pressure;BME280_temperature;BME280_humidity;BME280_pressure;Samples;Min_cycle;Max_cycle;Signal;HPM_P1;HPM_P2
2022/12/17 13:06:48;;;;;;;128.60;51.23;;;;;;;-3.53;100.00;98568.09;1738846;82;22093;-80
2022/12/17 13:09:19;;;;;;;155.97;63.40;;;;;;;-3.45;100.00;98578.64;1738813;82;21038;-78
2022/12/17 13:11:56;;;;;;;140.52;55.65;;;;;;;-3.44;100.00;98576.80;1738769;82;21143;-81
2022/12/17 13:14:33;;;;;;;163.47;73.60;;;;;;;-3.42;100.00;98580.95;1711271;81;21586;-81
2022/12/17 13:17:09;;;;;;;155.55;69.25;;;;;;;-3.47;100.00;98587.77;1769883;81;21003;-78
2022/12/17 13:19:38;;;;;;;171.65;85.55;;;;;;;-3.60;100.00;98595.46;1764759;81;20999;-78
2022/12/17 13:22:19;;;;;;;142.87;61.92;;;;;;;-3.56;100.00;98598.92;1769859;81;20976;-81
2022/12/17 13:24:47;;;;;;;212.93;88.82;;;;;;;-3.61;100.00;98599.94;1769811;81;21280;-78
2022/12/17 13:27:32;;;;;;;176.10;79.05;;;;;;;-3.63;100.00;98608.56;1769803;81;21007;-78
2022/12/17 13:30:22;;;;;;;423.93;159.93;;;;;;;-3.62;100.00;98604.09;1780453;80;21031;-80
2022/12/17 13:33:31;;;;;;;183.25;80.40;;;;;;;-3.63;100.00;98613.87;1759546;81;21016;-81
2022/12/17 13:36:22;;;;;;;156.25;69.35;;;;;;;-3.67;100.00;98620.53;1761008;81;21027;-78
2022/12/17 13:39:20;;;;;;;145.57;57.98;;;;;;;-3.74;100.00;98617.74;1761108;81;21947;-81
2022/12/17 13:41:45;;;;;;;160.70;69.77;;;;;;;-3.72;100.00;98623.69;1760741;81;21003;-81
2022/12/17 13:44:24;;;;;;;175.47;80.28;;;;;;;-3.69;100.00;98629.95;1761149;81;20975;-78
2022/12/17 13:46:52;;;;;;;129.93;53.95;;;;;;;-3.74;100.00;98628.84;1761302;81;21059;-81
2022/12/17 13:49:21;;;;;;;129.57;48.30;;;;;;;-3.67;100.00;98629.80;1761547;81;21058;-80
2022/12/17 13:51:47;;;;;;;124.40;50.95;;;;;;;-3.60;100.00;98640.50;1761363;81;21069;-80
2022/12/17 13:54:16;;;;;;;140.73;60.25;;;;;;;-3.55;100.00;98643.47;1761108;81;21078;-78
2022/12/17 13:56:43;;;;;;;141.40;64.82;;;;;;;-3.52;100.00;98647.91;1761266;81;21059;-78
2022/12/17 13:59:19;;;;;;;114.50;54.27;;;;;;;-3.60;100.00;98658.55;1761242;81;21436;-80
2022/12/17 14:01:47;;;;;;;116.47;48.20;;;;;;;-3.60;100.00;98657.72;1746215;81;21356;-81
2022/12/17 14:04:24;;;;;;;107.80;42.62;;;;;;;-3.60;100.00;98659.87;1730988;82;21342;-80
2022/12/17 14:06:51;;;;;;;117.37;49.70;;;;;;;-3.57;100.00;98666.66;1730900;82;20996;-78
2022/12/17 14:09:20;;;;;;;142.72;60.78;;;;;;;-3.57;100.00;98671.46;1731004;82;21059;-80
2022/12/17 14:14:40;;;;;;;201.75;96.05;;;;;;;-3.55;100.00;98681.87;1733222;81;20973;-80
2022/12/17 14:17:06;;;;;;;149.97;62.98;;;;;;;-3.58;100.00;98685.71;1760989;81;21128;-78
2022/12/17 14:19:32;;;;;;;144.93;55.95;;;;;;;-3.56;100.00;98687.68;1761081;81;21039;-78
2022/12/17 14:21:58;;;;;;;133.93;51.37;;;;;;;-3.54;100.00;98696.27;1761310;81;21023;-78
2022/12/17 14:24:27;;;;;;;131.95;55.30;;;;;;;-3.52;100.00;98707.52;1730920;81;21520;-80
2022/12/17 14:26:58;;;;;;;167.82;79.05;;;;;;;-3.50;100.00;98705.55;1761218;81;21255;-78
2022/12/17 14:29:28;;;;;;;174.77;85.32;;;;;;;-3.48;100.00;98710.16;1761172;81;21070;-78
2022/12/17 14:32:02;;;;;;;189.97;91.35;;;;;;;-3.49;100.00;98712.49;1760732;81;21008;-78
2022/12/17 14:34:32;;;;;;;173.45;79.58;;;;;;;-3.49;100.00;98712.49;1761416;81;21074;-78
2022/12/17 14:36:59;;;;;;;114.22;53.15;;;;;;;-3.51;100.00;98713.14;1755991;81;21479;-78
2022/12/17 14:39:28;;;;;;;134.70;56.95;;;;;;;-3.48;100.00;98723.41;1761188;81;21093;-78
2022/12/17 14:44:54;;;;;;;98.80;39.45;;;;;;;-3.48;100.00;98730.55;1761313;81;21011;-78
2022/12/17 14:47:28;;;;;;;;;;;;;;;-3.48;100.00;98735.84;1764239;81;21083;-80
2022/12/17 14:50:08;;;;;;;86.63;36.38;;;;;;;-3.48;100.00;98739.81;1761672;81;20516;-78
2022/12/17 14:52:46;;;;;;;138.88;53.55;;;;;;;-3.45;100.00;98750.87;1757024;81;20999;-78
2022/12/17 14:55:38;;;;;;;156.25;70.22;;;;;;;-3.45;100.00;98756.69;1761518;81;21041;-78
2022/12/17 14:58:15;;;;;;;136.57;60.98;;;;;;;-3.47;100.00;98760.02;1756951;81;21067;-77
2022/12/17 15:00:48;;;;;;;142.53;63.08;;;;;;;-3.54;100.00;98756.39;1759816;81;21017;-81
2022/12/17 15:03:19;;;;;;;140.75;51.40;;;;;;;-3.55;100.00;98759.55;1729708;82;20996;-78
2022/12/17 15:05:51;;;;;;;102.17;44.77;;;;;;;-3.52;100.00;98767.64;1731306;82;21444;-78
2022/12/17 15:08:18;;;;;;;132.20;57.73;;;;;;;-3.50;100.00;98765.67;1731207;82;21281;-78
2022/12/17 15:10:44;;;;;;;186.85;88.47;;;;;;;-3.52;100.00;98768.96;1731086;82;21479;-78
2022/12/17 15:13:10;;;;;;;131.43;56.45;;;;;;;-3.53;100.00;98776.59;1701896;82;20980;-80
2022/12/17 15:15:36;;;;;;;101.53;45.48;;;;;;;-3.52;100.00;98776.91;1747013;79;21555;-78
2022/12/17 15:18:02;;;;;;;111.08;45.00;;;;;;;-3.49;100.00;98777.91;1761608;81;20892;-78
2022/12/17 15:20:28;;;;;;;143.95;56.25;;;;;;;-3.49;100.00;98781.39;1761460;81;21133;-78
2022/12/17 15:22:54;;;;;;;173.62;66.60;;;;;;;-3.47;100.00;98787.34;1731039;81;20840;-78
2022/12/17 15:25:20;;;;;;;168.87;72.55;;;;;;;-3.46;100.00;98785.51;1761503;81;20959;-78
2022/12/17 15:27:46;;;;;;;167.77;68.78;;;;;;;-3.51;100.00;98787.84;1761566;81;20821;-78
2022/12/17 15:30:14;;;;;;;235.95;93.78;;;;;;;-3.52;100.00;98792.81;1761563;81;21342;-78
2022/12/17 15:32:40;;;;;;;157.03;64.20;;;;;;;-3.61;100.00;98789.86;1761721;81;21210;-81
2022/12/17 15:35:07;;;;;;;157.20;61.18;;;;;;;-3.60;100.00;98799.46;1761569;81;21023;-78
2022/12/17 15:37:33;;;;;;;160.82;67.95;;;;;;;-3.65;100.00;98799.98;1761173;81;21015;-80
2022/12/17 15:39:59;;;;;;;197.30;80.83;;;;;;;-3.65;100.00;98804.46;1761541;81;20936;-81
2022/12/17 15:45:09;;;;;;;219.95;85.85;;;;;;;-3.66;100.00;98809.44;1761550;81;21075;-78
2022/12/17 15:47:35;;;;;;;204.97;88.58;;;;;;;-3.63;100.00;98813.88;1761217;81;21999;-78
2022/12/17 15:50:02;;;;;;;225.35;99.55;;;;;;;-3.60;100.00;98813.53;1761565;81;20852;-80
2022/12/17 15:52:28;;;;;;;195.82;87.92;;;;;;;-3.59;100.00;98823.16;1761372;81;21067;-78
2022/12/17 15:54:54;;;;;;;197.80;82.80;;;;;;;-3.58;100.00;98826.13;1761548;81;20908;-81
2022/12/17 15:57:20;;;;;;;197.57;88.12;;;;;;;-3.53;100.00;98830.91;1761250;81;21823;-77
2022/12/17 15:59:46;;;;;;;187.40;83.78;;;;;;;-3.53;100.00;98831.73;1761462;81;21003;-78
2022/12/17 16:02:12;;;;;;;196.37;83.40;;;;;;;-3.49;100.00;98833.56;1740910;81;20920;-81
2022/12/17 16:04:38;;;;;;;206.23;84.10;;;;;;;-3.50;100.00;98835.39;1731128;82;20861;-78
2022/12/17 16:07:04;;;;;;;212.27;90.60;;;;;;;-3.46;100.00;98834.03;1731246;82;20873;-81
2022/12/17 16:09:30;;;;;;;205.92;85.15;;;;;;;-3.46;100.00;98842.48;1730910;82;21132;-81
2022/12/17 16:11:56;;;;;;;192.05;81.45;;;;;;;-3.53;100.00;98848.95;1731095;82;20904;-81
2022/12/17 16:14:22;;;;;;;187.18;81.78;;;;;;;-3.54;100.00;98847.30;1731238;81;20992;-78
2022/12/17 16:16:49;;;;;;;219.35;91.60;;;;;;;-3.57;100.00;98848.16;1761225;81;21019;-81
2022/12/17 16:19:15;;;;;;;233.05;97.82;;;;;;;-3.59;100.00;98853.62;1761206;81;21011;-77
2022/12/17 16:21:40;;;;;;;229.43;97.85;;;;;;;-3.60;100.00;98852.45;1761332;81;21940;-78
2022/12/17 16:24:07;;;;;;;192.22;80.77;;;;;;;-3.65;100.00;98858.27;1761026;81;20943;-81
2022/12/17 16:26:33;;;;;;;200.50;87.67;;;;;;;-3.64;100.00;98858.59;1761273;81;21429;-78
2022/12/17 16:28:59;;;;;;;155.03;69.75;;;;;;;-3.65;100.00;98862.74;1761333;81;20888;-81
2022/12/17 16:31:25;;;;;;;172.80;79.72;;;;;;;-3.71;100.00;98864.23;1761299;81;20886;-78
2022/12/17 16:33:50;;;;;;;161.18;66.00;;;;;;;-3.72;100.00;98871.35;1761368;81;21157;-78
2022/12/17 16:36:19;;;;;;;135.63;58.05;;;;;;;-3.72;100.00;98872.68;1761192;81;20919;-80
2022/12/17 16:38:47;;;;;;;;;;;;;;;-3.71;100.00;98872.18;1763897;81;21008;-80
2022/12/17 16:41:13;;;;;;;150.60;63.05;;;;;;;-3.71;100.00;98862.41;1761331;81;20192;-78
2022/12/17 16:43:39;;;;;;;190.43;73.92;;;;;;;-3.70;100.00;98869.86;1761298;81;21586;-78
2022/12/17 16:46:05;;;;;;;169.32;67.95;;;;;;;-3.67;100.00;98872.19;1761298;81;21197;-81
2022/12/17 16:48:35;;;;;;;149.40;62.13;;;;;;;-3.63;100.00;98886.73;1761098;81;20939;-78
2022/12/17 16:51:01;;;;;;;142.00;55.33;;;;;;;-3.60;100.00;98884.24;1761441;81;21083;-78
2022/12/17 16:53:27;;;;;;;130.00;53.90;;;;;;;-3.57;100.00;98887.90;1706794;81;21515;-81
2022/12/17 16:55:53;;;;;;;133.82;55.95;;;;;;;-3.58;100.00;98892.38;1707085;81;20884;-81
2022/12/17 16:58:19;;;;;;;135.90;57.90;;;;;;;-3.57;100.00;98892.70;1761251;81;20900;-78
2022/12/17 17:00:51;;;;;;;140.62;61.58;;;;;;;-3.55;100.00;98903.13;1758848;81;21401;-81
2022/12/17 17:03:16;;;;;;;138.35;54.93;;;;;;;-3.55;100.00;98910.57;1730363;82;21012;-78
2022/12/17 17:05:42;;;;;;;134.43;56.42;;;;;;;-3.53;100.00;98911.23;1731325;82;20991;-78
2022/12/17 17:08:08;;;;;;;146.90;62.85;;;;;;;-3.53;100.00;98916.52;1731245;82;20893;-80
2022/12/17 17:10:35;;;;;;;151.60;61.63;;;;;;;-3.51;100.00;98920.33;1731338;82;21193;-78
2022/12/17 17:13:01;;;;;;;162.92;73.85;;;;;;;-3.50;100.00;98924.16;1730829;82;20981;-81
2022/12/17 17:15:27;;;;;;;259.57;113.97;;;;;;;-3.49;100.00;98923.66;1743508;81;21044;-81
2022/12/17 17:17:53;;;;;;;260.75;110.17;;;;;;;-3.53;100.00;98925.80;1745966;82;20858;-78
2022/12/17 17:20:19;;;;;;;284.60;119.95;;;;;;;-3.61;100.00;98928.45;1768961;81;21570;-81
2022/12/17 17:22:45;;;;;;;295.67;126.60;;;;;;;-3.63;100.00;98930.95;1745778;82;21110;-78
2022/12/17 17:25:11;;;;;;;295.30;131.00;;;;;;;-3.63;100.00;98936.25;1768745;81;21682;-81
2022/12/17 17:27:36;;;;;;;299.00;133.03;;;;;;;-3.63;100.00;98934.92;1745819;82;20870;-81
2022/12/17 17:30:03;;;;;;;285.80;117.33;;;;;;;-3.61;100.00;98944.35;1768787;81;20873;-77
2022/12/17 17:32:29;;;;;;;272.98;109.55;;;;;;;-3.62;100.00;98945.84;1768612;81;21087;-78
2022/12/17 17:34:55;;;;;;;270.40;107.10;;;;;;;-3.62;100.00;98951.15;1746097;82;21871;-78
2022/12/17 17:37:21;;;;;;;257.65;110.32;;;;;;;-3.61;100.00;98956.77;1768552;81;20841;-81
2022/12/17 17:39:47;;;;;;;249.65;110.78;;;;;;;-3.64;100.00;98956.63;1746099;82;20960;-78
2022/12/17 17:42:13;;;;;;;203.15;91.22;;;;;;;-3.61;100.00;98960.25;1768689;81;20838;-81
2022/12/17 17:44:39;;;;;;;167.45;72.67;;;;;;;-3.59;100.00;98960.94;1745751;82;21057;-81
2022/12/17 17:47:05;;;;;;;165.95;68.30;;;;;;;-3.56;100.00;98966.39;1768472;81;21000;-80
2022/12/17 17:49:31;;;;;;;266.35;100.58;;;;;;;-3.52;100.00;98970.34;1745558;82;21450;-78
2022/12/17 17:51:57;;;;;;;315.87;117.65;;;;;;;-3.49;100.00;98966.89;1768620;81;21043;-81
2022/12/17 17:54:23;;;;;;;279.93;111.25;;;;;;;-3.46;100.00;98971.02;1745545;82;20933;-79
2022/12/17 17:56:49;;;;;;;214.32;87.78;;;;;;;-3.47;100.00;98965.39;1768952;81;20893;-78
2022/12/17 17:59:18;;;;;;;200.70;79.80;;;;;;;-3.50;100.00;98964.41;1745616;82;21310;-80
2022/12/17 18:01:48;;;;;;;181.43;77.45;;;;;;;-3.49;100.00;98973.51;1764305;81;20990;-81
2022/12/17 18:04:16;;;;;;;184.65;78.87;;;;;;;-3.52;100.00;98973.83;1732002;81;21003;-78
2022/12/17 18:06:43;;;;;;;187.27;78.50;;;;;;;-3.52;100.00;98979.63;1751232;81;22003;-81
2022/12/17 18:09:09;;;;;;;204.70;92.12;;;;;;;-3.52;100.00;98988.40;1732065;81;21043;-78
2022/12/17 18:11:36;;;;;;;283.87;114.52;;;;;;;-3.53;100.00;98984.09;1751248;80;21773;-78
2022/12/17 18:14:03;;;;;;;262.95;105.58;;;;;;;-3.49;100.00;98985.44;1731970;81;21054;-81
2022/12/17 18:16:41;;;;;;;188.40;85.28;;;;;;;-3.49;100.00;98979.31;1702668;81;21167;-78
2022/12/17 18:19:21;;;;;;;166.17;73.50;;;;;;;-3.54;100.00;98981.62;1745914;81;21088;-78
2022/12/17 18:21:47;;;;;;;154.87;66.72;;;;;;;-3.56;100.00;98983.11;1768648;81;21007;-81
2022/12/17 18:24:17;;;;;;;150.25;59.20;;;;;;;-3.56;100.00;98985.77;1768562;81;21163;-81
2022/12/17 18:26:43;;;;;;;135.15;51.88;;;;;;;-3.56;100.00;98993.71;1768561;81;21064;-81
2022/12/17 18:29:19;;;;;;;142.98;57.17;;;;;;;-3.56;100.00;98995.53;1745628;81;21061;-78
2022/12/17 18:31:45;;;;;;;136.80;52.75;;;;;;;-3.55;100.00;99003.31;1768126;81;20949;-80
2022/12/17 18:34:17;;;;;;;139.68;57.62;;;;;;;-3.53;100.00;99003.14;1768637;81;21043;-81
2022/12/17 18:36:44;;;;;;;160.80;61.10;;;;;;;-3.53;100.00;99011.09;1745449;82;21296;-78
2022/12/17 18:39:14;;;;;;;156.55;64.42;;;;;;;-3.52;100.00;99008.77;1768358;81;20970;-81
2022/12/17 18:44:25;;;;;;;191.75;81.00;;;;;;;-3.52;100.00;99022.84;1768354;81;21028;-78
2022/12/17 18:46:50;;;;;;;177.87;73.87;;;;;;;-3.61;100.00;99021.19;1768624;81;21460;-78
2022/12/17 18:49:19;;;;;;;195.12;87.75;;;;;;;-3.64;100.00;99027.33;1745524;82;21199;-81
2022/12/17 18:51:48;;;;;;;177.62;74.53;;;;;;;-3.75;100.00;99026.66;1768491;81;21041;-78
2022/12/17 18:54:20;;;;;;;132.25;54.40;;;;;;;-3.79;100.00;99030.61;1745647;82;21084;-78
2022/12/17 18:56:45;;;;;;;171.43;64.12;;;;;;;-3.73;100.00;99033.11;1768697;81;21072;-78
2022/12/17 18:59:12;;;;;;;162.50;65.37;;;;;;;-3.76;100.00;99035.61;1745731;82;20939;-81
2022/12/17 19:01:38;;;;;;;157.57;64.65;;;;;;;-3.82;100.00;99042.05;1755447;81;21166;-81
2022/12/17 19:04:07;;;;;;;168.78;70.92;;;;;;;-3.87;100.00;99043.02;1738786;82;21601;-78
2022/12/17 19:06:33;;;;;;;151.30;60.90;;;;;;;-3.88;100.00;99047.98;1738924;82;21554;-79
2022/12/17 19:08:59;;;;;;;152.70;62.23;;;;;;;-3.89;100.00;99048.98;1738798;82;21026;-78
2022/12/17 19:11:25;;;;;;;136.62;54.50;;;;;;;-4.00;100.00;99052.77;1738920;82;21018;-81
2022/12/17 19:13:51;;;;;;;189.28;92.80;;;;;;;-3.98;100.00;99048.13;1738711;82;21037;-78
2022/12/17 19:16:22;;;;;;;155.30;60.03;;;;;;;-3.97;100.00;99063.02;1763643;81;20903;-78
2022/12/17 19:18:54;;;;;;;145.45;58.08;;;;;;;-4.00;100.00;99059.39;1779965;80;21982;-81
2022/12/17 19:21:20;;;;;;;146.22;55.52;;;;;;;-4.03;100.00;99067.62;1759780;81;21476;-81
2022/12/17 19:23:47;;;;;;;170.77;72.15;;;;;;;-4.10;100.00;99070.58;1761155;81;20908;-81
2022/12/17 19:26:16;;;;;;;173.43;71.72;;;;;;;-4.13;100.00;99077.03;1761437;81;21062;-78
2022/12/17 19:28:43;;;;;;;;;;;;;;;-4.18;100.00;99085.14;1763738;81;21031;-81
2022/12/17 19:31:11;;;;;;;151.87;58.83;;;;;;;-4.21;100.00;99086.27;1761635;81;20217;-78
2022/12/17 19:33:37;;;;;;;205.50;87.87;;;;;;;-4.28;100.00;99084.75;1761464;81;21003;-78
2022/12/17 19:36:07;;;;;;;168.78;63.70;;;;;;;-4.34;100.00;99089.38;1761606;81;21479;-81
2022/12/17 19:38:33;;;;;;;155.15;55.15;;;;;;;-4.31;100.00;99093.02;1761234;81;21122;-78
2022/12/17 19:41:08;;;;;;;171.22;63.10;;;;;;;-4.25;100.00;99102.15;1761221;81;20844;-78
2022/12/17 19:43:34;;;;;;;201.37;74.05;;;;;;;-4.27;100.00;99101.48;1761071;81;21031;-81
2022/12/17 19:46:07;;;;;;;208.32;92.40;;;;;;;-4.27;100.00;99103.64;1731311;81;20892;-81
2022/12/17 19:48:35;;;;;;;144.97;52.95;;;;;;;-4.30;100.00;99105.26;1761194;81;21011;-81
2022/12/17 19:51:02;;;;;;;157.52;57.30;;;;;;;-4.29;100.00;99111.38;1761509;81;21129;-81
2022/12/17 19:53:28;;;;;;;166.57;58.95;;;;;;;-4.28;100.00;99117.83;1761249;81;21007;-80
2022/12/17 19:55:56;;;;;;;175.60;72.90;;;;;;;-4.27;100.00;99121.34;1731308;81;21486;-78
2022/12/17 19:58:23;;;;;;;170.22;64.60;;;;;;;-4.27;100.00;99125.30;1758197;81;21083;-78
2022/12/17 20:00:50;;;;;;;207.62;84.15;;;;;;;-4.24;100.00;99125.48;1758392;81;21082;-80
2022/12/17 20:03:16;;;;;;;175.57;66.55;;;;;;;-4.28;100.00;99128.91;1730903;82;21331;-78
2022/12/17 20:05:43;;;;;;;156.78;58.28;;;;;;;-4.29;100.00;99132.05;1731044;82;20967;-80
2022/12/17 20:08:10;;;;;;;214.48;87.92;;;;;;;-4.36;100.00;99135.02;1730873;82;21004;-80
2022/12/17 20:10:36;;;;;;;186.30;68.00;;;;;;;-4.40;100.00;99134.98;1731264;82;21975;-78
2022/12/17 20:13:01;;;;;;;159.67;61.25;;;;;;;-4.40;100.00;99136.80;1730945;82;20992;-78
2022/12/17 20:15:28;;;;;;;184.40;72.90;;;;;;;-4.44;100.00;99150.00;1743444;81;21755;-80
2022/12/17 20:17:54;;;;;;;171.93;66.60;;;;;;;-4.47;100.00;99154.28;1716375;82;20992;-78
2022/12/17 20:20:20;;;;;;;189.93;77.35;;;;;;;-4.44;100.00;99152.17;1768809;81;21010;-80
2022/12/17 20:22:48;;;;;;;171.85;73.97;;;;;;;-4.47;100.00;99163.55;1745762;82;20873;-81
2022/12/17 20:25:14;;;;;;;151.32;55.73;;;;;;;-4.46;100.00;99175.30;1768805;81;21024;-78
2022/12/17 20:27:42;;;;;;;174.57;68.78;;;;;;;-4.48;100.00;99171.16;1745537;82;21264;-78
2022/12/17 20:30:09;;;;;;;152.90;58.10;;;;;;;-4.50;100.00;99175.78;1768765;81;20996;-81
2022/12/17 20:32:36;;;;;;;144.35;53.40;;;;;;;-4.51;100.00;99178.92;1745834;81;20994;-78
2022/12/17 20:35:06;;;;;;;156.67;61.08;;;;;;;-4.55;100.00;99185.48;1768690;81;22138;-78
2022/12/17 20:37:32;;;;;;;160.30;66.62;;;;;;;-4.56;100.00;99192.59;1768934;81;21496;-80
2022/12/17 20:39:58;;;;;;;151.93;53.85;;;;;;;-4.59;100.00;99203.99;1746181;82;21144;-78
2022/12/17 20:42:24;;;;;;;132.47;47.08;;;;;;;-4.62;100.00;99202.46;1768579;81;22139;-78
2022/12/17 20:44:50;;;;;;;136.40;48.60;;;;;;;-4.61;100.00;99208.61;1745795;81;20936;-81
2022/12/17 20:47:16;;;;;;;134.20;50.67;;;;;;;-4.73;100.00;99204.53;1768819;81;20913;-80
2022/12/17 20:49:42;;;;;;;160.28;57.00;;;;;;;-4.75;100.00;99206.52;1745681;82;21024;-78
2022/12/17 20:52:08;;;;;;;212.05;82.57;;;;;;;-4.68;100.00;99212.36;1768789;81;21053;-78
2022/12/17 20:54:34;;;;;;;169.32;69.50;;;;;;;-4.68;100.00;99218.97;1737980;81;20853;-78
2022/12/17 20:57:00;;;;;;;188.95;82.82;;;;;;;-4.69;100.00;99217.31;1745844;81;20952;-80
2022/12/17 20:59:26;;;;;;;147.87;52.27;;;;;;;-4.71;100.00;99225.05;1768444;81;21491;-78
2022/12/17 21:01:52;;;;;;;146.22;50.63;;;;;;;-4.76;100.00;99223.37;1747868;82;20887;-81
2022/12/17 21:04:18;;;;;;;143.40;52.55;;;;;;;-4.75;100.00;99225.86;1779971;80;21817;-81
2022/12/17 21:06:45;;;;;;;156.55;57.35;;;;;;;-4.79;100.00;99224.97;1761605;81;20864;-77
2022/12/17 21:09:13;;;;;;;160.55;63.20;;;;;;;-4.86;100.00;99228.74;1761071;81;21014;-78
2022/12/17 21:11:38;;;;;;;205.10;82.22;;;;;;;-4.86;100.00;99236.19;1761349;81;21471;-80
2022/12/17 21:14:11;;;;;;;159.67;63.35;;;;;;;-4.88;100.00;99232.01;1761097;81;20896;-78
2022/12/17 21:16:40;;;;;;;179.40;69.55;;;;;;;-4.87;100.00;99229.23;1732360;81;21661;-78
2022/12/17 21:19:06;;;;;;;175.23;74.30;;;;;;;-4.93;100.00;99243.05;1730942;82;21019;-78
2022/12/17 21:21:35;;;;;;;163.55;61.92;;;;;;;-4.99;100.00;99246.30;1731136;82;21042;-81
2022/12/17 21:24:01;;;;;;;170.77;58.10;;;;;;;-5.03;100.00;99244.95;1731071;82;21003;-78
2022/12/17 21:26:36;;;;;;;139.72;55.25;;;;;;;-5.00;100.00;99251.24;1677173;82;21129;-80
2022/12/17 21:29:03;;;;;;;143.78;54.18;;;;;;;-4.97;100.00;99258.03;1730939;82;21046;-80
2022/12/17 21:31:39;;;;;;;133.27;46.83;;;;;;;-4.99;100.00;99262.64;1731102;82;21546;-78
2022/12/17 21:34:07;;;;;;;135.22;53.65;;;;;;;-4.97;100.00;99266.80;1730800;82;21079;-80
2022/12/17 21:36:33;;;;;;;122.22;43.68;;;;;;;-4.99;100.00;99267.45;1731242;82;21062;-77
2022/12/17 21:39:01;;;;;;;124.30;43.87;;;;;;;-4.95;100.00;99278.08;1730582;82;46301;-80
2022/12/17 21:41:32;;;;;;;142.15;52.85;;;;;;;-4.97;100.00;99280.02;1731068;82;21099;-78
2022/12/17 21:44:01;;;;;;;142.30;53.78;;;;;;;-5.00;100.00;99281.65;1730832;82;21007;-80
2022/12/17 21:46:27;;;;;;;124.02;45.23;;;;;;;-5.02;100.00;99288.08;1731407;82;21062;-80
2022/12/17 21:48:57;;;;;;;134.72;45.73;;;;;;;-4.99;100.00;99295.20;1730845;82;20970;-78
2022/12/17 21:51:24;;;;;;;143.20;57.43;;;;;;;-4.96;100.00;99298.03;1731151;82;21062;-81
2022/12/17 21:53:58;;;;;;;129.78;50.20;;;;;;;-4.94;100.00;99302.70;1730959;82;21794;-78
2022/12/17 21:56:24;;;;;;;149.40;56.23;;;;;;;-4.92;100.00;99300.73;1731194;82;21038;-81
2022/12/17 21:58:58;;;;;;;129.63;46.68;;;;;;;-4.88;100.00;99306.87;1730911;82;21019;-81
2022/12/17 22:01:28;;;;;;;126.97;44.53;;;;;;;-4.80;100.00;99315.87;1714473;81;21051;-78
2022/12/17 22:03:57;;;;;;;113.28;45.38;;;;;;;-4.77;100.00;99324.85;1761129;79;21023;-78
2022/12/17 22:06:24;;;;;;;134.18;43.28;;;;;;;-4.73;100.00;99317.77;1731389;81;21060;-81
2022/12/17 22:08:50;;;;;;;144.50;45.00;;;;;;;-4.73;100.00;99318.27;1761134;81;21012;-80
2022/12/17 22:11:20;;;;;;;132.60;43.98;;;;;;;-4.71;100.00;99313.65;1761326;81;21062;-78
2022/12/17 22:14:01;;;;;;;122.72;42.58;;;;;;;-4.69;100.00;99315.67;1761133;79;21071;-78
2022/12/17 22:16:30;;;;;;;138.32;55.85;;;;;;;-4.64;100.00;99321.33;1735008;81;21065;-78
2022/12/17 22:18:57;;;;;;;125.80;40.92;;;;;;;-4.66;100.00;99318.01;1730238;82;21309;-78
2022/12/17 22:21:25;;;;;;;124.55;44.88;;;;;;;-4.75;100.00;99330.33;1731068;82;21055;-78
2022/12/17 22:23:51;;;;;;;123.75;44.35;;;;;;;-4.74;100.00;99335.95;1743233;81;20988;-80
2022/12/17 22:26:17;;;;;;;128.95;41.98;;;;;;;-4.73;100.00;99336.78;1750673;82;20988;-81
2022/12/17 22:28:47;;;;;;;147.53;56.80;;;;;;;-4.72;100.00;99341.09;1770990;81;21075;-80
2022/12/17 22:33:57;;;;;;;125.50;42.90;;;;;;;-4.68;100.00;99342.47;1750293;81;21303;-78
2022/12/17 22:36:24;;;;;;;126.02;49.33;;;;;;;-4.75;100.00;99344.87;1771051;81;21012;-77
2022/12/17 22:38:50;;;;;;;161.97;56.37;;;;;;;-4.85;100.00;99344.94;1750356;81;21008;-78
2022/12/17 22:44:01;;;;;;;183.22;65.95;;;;;;;-5.00;100.00;99349.06;1750422;82;21104;-78
2022/12/17 22:46:28;;;;;;;138.85;46.35;;;;;;;-4.96;100.00;99352.23;1771031;81;21464;-80
2022/12/17 22:48:56;;;;;;;154.45;58.85;;;;;;;-5.00;100.00;99349.55;1770904;81;21008;-78
2022/12/17 22:51:24;;;;;;;146.13;52.83;;;;;;;-4.99;100.00;99355.18;1750648;81;21024;-81
2022/12/17 22:53:51;;;;;;;128.18;44.55;;;;;;;-4.95;100.00;99353.92;1770672;81;21008;-78
2022/12/17 22:56:17;;;;;;;162.40;49.98;;;;;;;-5.00;100.00;99345.59;1750022;81;21720;-78
2022/12/17 22:58:43;;;;;;;138.95;43.50;;;;;;;-4.95;100.00;99359.21;1749156;81;21050;-77
2022/12/17 23:01:09;;;;;;;126.50;41.50;;;;;;;-4.93;100.00;99363.36;1749523;82;21526;-78
2022/12/17 23:03:35;;;;;;;122.53;42.55;;;;;;;-4.90;100.00;99374.95;1780058;80;21570;-78
2022/12/17 23:06:10;;;;;;;118.95;42.23;;;;;;;-4.92;100.00;99369.48;1761653;81;20967;-81
2022/12/17 23:08:36;;;;;;;130.18;46.40;;;;;;;-4.88;100.00;99375.63;1760997;81;21192;-78
2022/12/17 23:11:11;;;;;;;131.85;43.78;;;;;;;-4.88;100.00;99381.41;1761467;81;21640;-80
2022/12/17 23:13:37;;;;;;;130.37;41.00;;;;;;;-4.93;100.00;99381.04;1761370;81;21467;-78
2022/12/17 23:16:04;;;;;;;122.37;45.20;;;;;;;-4.93;100.00;99381.87;1740096;81;21007;-81
2022/12/17 23:18:31;;;;;;;219.50;78.57;;;;;;;-4.96;100.00;99382.63;1731071;82;21019;-78
2022/12/17 23:21:07;;;;;;;144.72;54.00;;;;;;;-4.99;100.00;99375.02;1731444;82;21031;-81
2022/12/17 23:23:33;;;;;;;139.65;43.23;;;;;;;-5.01;100.00;99384.41;1730981;82;21503;-80
2022/12/17 23:26:07;;;;;;;172.70;58.25;;;;;;;-5.09;100.00;99386.13;1731238;82;20990;-80
2022/12/17 23:28:32;;;;;;;146.68;55.35;;;;;;;-5.10;100.00;99390.59;1729845;81;21026;-80
2022/12/17 23:31:15;;;;;;;155.10;56.77;;;;;;;-5.13;100.00;99390.86;1731463;82;21605;-78
2022/12/17 23:33:41;;;;;;;148.35;48.75;;;;;;;-5.11;100.00;99399.01;1731013;81;21673;-80
2022/12/17 23:36:10;;;;;;;145.47;46.45;;;;;;;-5.08;100.00;99399.69;1731143;82;21031;-80
2022/12/17 23:38:36;;;;;;;117.47;44.95;;;;;;;-5.08;100.00;99397.88;1731042;82;21094;-80
2022/12/17 23:41:12;;;;;;;115.42;38.40;;;;;;;-5.06;100.00;99407.80;1731018;82;21022;-81
2022/12/17 23:43:38;;;;;;;116.47;39.75;;;;;;;-5.02;100.00;99410.52;1730261;82;21522;-78
2022/12/17 23:46:04;;;;;;;127.80;42.53;;;;;;;-4.99;100.00;99419.46;1731390;82;21166;-80
2022/12/17 23:48:33;;;;;;;126.20;42.80;;;;;;;-5.02;100.00;99411.84;1730969;82;21079;-78
2022/12/17 23:50:59;;;;;;;129.90;40.30;;;;;;;-5.06;100.00;99418.38;1731483;82;20991;-80
2022/12/17 23:53:26;;;;;;;122.53;45.23;;;;;;;-5.06;100.00;99424.16;1730971;82;20960;-80
2022/12/17 23:55:52;;;;;;;114.30;37.40;;;;;;;-5.05;100.00;99431.11;1731181;82;21042;-80
2022/12/17 23:58:18;;;;;;;115.70;38.28;;;;;;;-5.13;100.00;99429.19;1731133;82;21147;-78
